Time;durP1;ratioP1;P1;durP2;ratioP2;P2;SDS_P1;SDS_P2;PMS_P1;PMS_P2;Temp;Humidity;BMP_temperature;BMP_pressure;BME280_temperature;BME280_humidity;BME280_pressure;Samples;Min_cycle;Max_cycle;Signal;HPM_P1;HPM_P2
2022/03/20 00:01:03;;;;;;;20.63;12.23;;;5.90;99.90;;;;;;5020667;28;20213;-74
2022/03/20 00:03:31;;;;;;;22.70;12.27;;;5.90;99.90;;;;;;5019993;28;20621;-74
2022/03/20 00:05:58;;;;;;;22.17;12.67;;;5.90;99.90;;;;;;5023912;28;20659;-74
2022/03/20 00:08:25;;;;;;;19.27;11.83;;;5.80;99.90;;;;;;5020670;28;20722;-74
2022/03/20 00:10:57;;;;;;;23.07;12.03;;;5.90;99.90;;;;;;5025080;28;20203;-73
2022/03/20 00:13:24;;;;;;;24.20;12.93;;;5.90;99.90;;;;;;5023108;28;20289;-74
2022/03/20 00:15:52;;;;;;;23.47;12.93;;;5.80;99.90;;;;;;5022780;28;20194;-74
2022/03/20 00:18:20;;;;;;;21.03;11.47;;;5.70;99.90;;;;;;5020257;28;20700;-75
2022/03/20 00:20:49;;;;;;;18.27;11.73;;;5.70;99.90;;;;;;5020377;28;20196;-74
2022/03/20 00:23:17;;;;;;;22.17;11.77;;;5.70;99.90;;;;;;5026898;28;20579;-74
2022/03/20 00:25:46;;;;;;;23.50;12.53;;;5.70;99.90;;;;;;5020520;28;20203;-73
2022/03/20 00:28:15;;;;;;;20.77;12.37;;;5.70;99.90;;;;;;5017566;28;20270;-74
2022/03/20 00:30:43;;;;;;;25.07;12.23;;;5.60;99.90;;;;;;5021700;28;20199;-74
2022/03/20 00:33:10;;;;;;;20.63;11.30;;;5.60;99.90;;;;;;5024012;28;20196;-72
2022/03/20 00:35:37;;;;;;;22.70;12.57;;;5.50;99.90;;;;;;5017720;28;20196;-74
2022/03/20 00:38:05;;;;;;;24.20;12.13;;;5.50;99.90;;;;;;5019223;28;20223;-74
2022/03/20 00:40:32;;;;;;;24.10;12.60;;;5.40;99.90;;;;;;5026086;28;20200;-75
2022/03/20 00:42:59;;;;;;;21.10;11.50;;;5.50;99.90;;;;;;5028655;28;20204;-74
2022/03/20 00:45:28;;;;;;;22.83;12.63;;;5.50;99.90;;;;;;5021276;28;20192;-75
2022/03/20 00:47:55;;;;;;;21.70;11.87;;;5.40;99.90;;;;;;5009793;28;20292;-75
2022/03/20 00:50:22;;;;;;;22.07;11.73;;;5.40;99.90;;;;;;5022420;28;20197;-75
2022/03/20 00:52:49;;;;;;;24.10;11.63;;;5.30;99.90;;;;;;5017419;28;20208;-76
2022/03/20 00:55:16;;;;;;;20.60;11.83;;;5.30;99.90;;;;;;5021922;28;20200;-74
2022/03/20 00:57:42;;;;;;;21.97;11.77;;;5.20;99.90;;;;;;5021924;28;20639;-74
2022/03/20 01:00:09;;;;;;;20.27;11.47;;;5.30;99.90;;;;;;5023104;28;20254;-75
2022/03/20 01:02:40;;;;;;;22.40;11.97;;;5.30;99.90;;;;;;5015466;28;20197;-73
2022/03/20 01:05:08;;;;;;;26.47;12.37;;;5.40;99.90;;;;;;5019274;28;20211;-75
2022/03/20 01:07:38;;;;;;;20.67;12.07;;;5.40;99.90;;;;;;5018571;28;20218;-72
2022/03/20 01:10:06;;;;;;;21.47;12.53;;;5.60;99.90;;;;;;5026929;28;20192;-74
2022/03/20 01:12:34;;;;;;;21.63;11.73;;;5.50;99.90;;;;;;5017326;28;20201;-74
2022/03/20 01:15:02;;;;;;;23.60;12.70;;;5.40;99.90;;;;;;5020887;28;20210;-75
2022/03/20 01:17:29;;;;;;;23.63;11.93;;;5.40;99.90;;;;;;5016885;28;20200;-74
2022/03/20 01:19:56;;;;;;;19.27;11.00;;;5.30;99.90;;;;;;5016335;28;20207;-75
2022/03/20 01:22:22;;;;;;;20.23;11.43;;;5.40;99.90;;;;;;5037302;28;20194;-74
2022/03/20 01:24:49;;;;;;;21.97;11.77;;;5.40;99.90;;;;;;5020809;28;20210;-74
2022/03/20 01:27:16;;;;;;;20.97;12.00;;;5.40;99.90;;;;;;5025780;28;20245;-74
2022/03/20 01:29:43;;;;;;;22.23;11.93;;;5.40;99.90;;;;;;5022966;28;20205;-74
2022/03/20 01:32:10;;;;;;;20.83;11.83;;;5.40;99.90;;;;;;5017625;28;20209;-74
2022/03/20 01:34:38;;;;;;;23.23;12.63;;;5.30;99.90;;;;;;5015361;28;20504;-74
2022/03/20 01:37:05;;;;;;;21.87;12.43;;;5.30;99.90;;;;;;5017699;28;20556;-74
2022/03/20 01:39:33;;;;;;;20.80;11.33;;;5.30;99.90;;;;;;5024730;28;20222;-74
2022/03/20 01:42:03;;;;;;;23.47;12.40;;;5.40;99.90;;;;;;5024048;28;20197;-75
2022/03/20 01:44:31;;;;;;;22.73;11.80;;;5.30;99.90;;;;;;5024078;28;20195;-74
2022/03/20 01:46:58;;;;;;;21.43;11.67;;;5.20;99.90;;;;;;5021701;28;20204;-74
2022/03/20 01:49:26;;;;;;;19.23;11.63;;;5.00;99.90;;;;;;5027323;28;20220;-74
2022/03/20 01:52:11;;;;;;;20.50;11.77;;;4.90;99.90;;;;;;5021598;28;20211;-75
2022/03/20 01:54:39;;;;;;;19.77;11.50;;;4.90;99.90;;;;;;5018374;28;20226;-74
2022/03/20 01:57:07;;;;;;;26.20;11.90;;;4.80;99.90;;;;;;5014822;28;20247;-74
2022/03/20 01:59:34;;;;;;;21.43;11.50;;;4.70;99.90;;;;;;5020709;28;20221;-74
2022/03/20 02:02:05;;;;;;;20.50;11.30;;;4.70;99.90;;;;;;5024373;28;20208;-74
2022/03/20 02:04:36;;;;;;;22.50;11.53;;;4.60;99.90;;;;;;5022400;28;20188;-74
2022/03/20 02:07:03;;;;;;;20.17;11.57;;;4.70;99.90;;;;;;5025094;28;20195;-74
2022/03/20 02:09:31;;;;;;;20.33;11.90;;;4.80;99.90;;;;;;5027535;28;20653;-75
2022/03/20 02:11:59;;;;;;;22.37;12.00;;;4.80;99.90;;;;;;5026159;28;20379;-74
2022/03/20 02:14:26;;;;;;;25.10;12.50;;;4.80;99.90;;;;;;5030819;28;20210;-73
2022/03/20 02:16:55;;;;;;;25.43;12.30;;;4.80;99.90;;;;;;5023010;28;20203;-74
2022/03/20 02:19:22;;;;;;;21.90;11.57;;;4.80;99.90;;;;;;5026939;28;20310;-75
2022/03/20 02:21:50;;;;;;;23.03;12.60;;;4.80;99.90;;;;;;5025849;28;20573;-74
2022/03/20 02:24:41;;;;;;;21.87;12.07;;;4.80;99.90;;;;;;5022849;28;20242;-75
2022/03/20 02:27:11;;;;;;;22.87;12.10;;;4.80;99.90;;;;;;5023588;28;20200;-74
2022/03/20 02:29:39;;;;;;;21.10;11.70;;;4.90;99.90;;;;;;5022248;28;20279;-74
2022/03/20 02:32:08;;;;;;;28.00;12.77;;;4.90;99.90;;;;;;5028950;28;20219;-74
2022/03/20 02:34:36;;;;;;;24.23;13.20;;;5.00;99.90;;;;;;5020618;28;20231;-73
2022/03/20 02:37:04;;;;;;;23.13;12.20;;;4.90;99.90;;;;;;5019875;28;20195;-75
2022/03/20 02:39:31;;;;;;;25.10;12.17;;;4.90;99.90;;;;;;5025014;28;20273;-74
2022/03/20 02:42:05;;;;;;;23.37;12.50;;;5.00;99.90;;;;;;5022938;28;20207;-74
2022/03/20 02:44:49;;;;;;;25.90;13.13;;;5.00;99.90;;;;;;5020267;28;20192;-75
2022/03/20 02:47:20;;;;;;;22.57;11.73;;;5.00;99.90;;;;;;5025924;28;20195;-75
2022/03/20 02:49:50;;;;;;;24.07;12.60;;;5.00;99.90;;;;;;5019779;28;20220;-75
2022/03/20 02:52:18;;;;;;;22.13;11.27;;;5.00;99.90;;;;;;5022464;28;20249;-75
2022/03/20 02:54:45;;;;;;;24.60;12.73;;;5.00;99.90;;;;;;5019512;28;20197;-75
2022/03/20 02:57:11;;;;;;;28.20;13.10;;;5.10;99.90;;;;;;5024400;28;20671;-73
2022/03/20 02:59:39;;;;;;;22.33;13.20;;;5.20;99.90;;;;;;5027424;28;20719;-74
2022/03/20 03:02:09;;;;;;;22.93;12.60;;;5.30;99.90;;;;;;5024471;28;20608;-73
2022/03/20 03:04:43;;;;;;;27.13;13.20;;;5.30;99.90;;;;;;5022609;28;20676;-75
2022/03/20 03:07:10;;;;;;;27.87;13.70;;;5.40;99.90;;;;;;5023640;28;20195;-76
2022/03/20 03:12:42;;;;;;;26.83;13.57;;;5.50;99.90;;;;;;4966966;28;20760;-73
2022/03/20 03:15:19;;;;;;;26.73;13.70;;;5.40;99.90;;;;;;4964401;28;20244;-74
2022/03/20 03:17:47;;;;;;;25.70;13.73;;;5.40;99.90;;;;;;4988875;28;20216;-74
2022/03/20 03:20:14;;;;;;;29.83;13.33;;;5.40;99.90;;;;;;5019790;28;20226;-73
2022/03/20 03:22:41;;;;;;;27.57;12.97;;;5.40;99.90;;;;;;5021707;28;20196;-74
2022/03/20 03:25:08;;;;;;;24.40;12.77;;;5.30;99.90;;;;;;5019943;28;20192;-74
2022/03/20 03:27:34;;;;;;;27.10;13.27;;;5.30;99.90;;;;;;5026306;28;20218;-74
2022/03/20 03:30:01;;;;;;;28.10;14.20;;;5.20;99.90;;;;;;5016747;28;20211;-74
2022/03/20 03:32:28;;;;;;;26.57;13.77;;;5.20;99.90;;;;;;5023864;28;20577;-74
2022/03/20 03:37:40;;;;;;;25.83;13.73;;;5.20;99.90;;;;;;5019152;28;20218;-74
2022/03/20 03:40:08;;;;;;;28.37;13.40;;;5.20;99.90;;;;;;5020200;28;20219;-74
2022/03/20 03:42:36;;;;;;;23.10;13.40;;;5.30;99.90;;;;;;5021960;28;20199;-75
2022/03/20 03:45:04;;;;;;;27.73;14.40;;;5.20;99.90;;;;;;5025925;28;20206;-75
2022/03/20 03:47:30;;;;;;;26.43;14.43;;;5.00;99.90;;;;;;5021059;28;20197;-74
2022/03/20 03:49:57;;;;;;;28.83;14.47;;;5.00;99.90;;;;;;5027472;28;20581;-74
2022/03/20 03:52:24;;;;;;;29.17;15.20;;;5.00;99.90;;;;;;5022949;28;20202;-74
2022/03/20 03:54:50;;;;;;;26.63;13.93;;;5.10;99.90;;;;;;5028040;28;20206;-73
2022/03/20 03:57:20;;;;;;;27.10;14.87;;;5.00;99.90;;;;;;5020678;28;20206;-74
2022/03/20 03:59:48;;;;;;;24.00;13.83;;;5.00;99.90;;;;;;5021496;28;20216;-74
2022/03/20 04:02:14;;;;;;;31.17;14.90;;;5.00;99.90;;;;;;5016907;28;20207;-74
2022/03/20 04:04:42;;;;;;;26.77;14.17;;;5.00;99.90;;;;;;5026418;28;20858;-74
2022/03/20 04:07:09;;;;;;;28.13;14.53;;;5.00;99.90;;;;;;5019756;28;20547;-74
2022/03/20 04:09:36;;;;;;;28.53;14.43;;;4.90;99.90;;;;;;5022902;28;20215;-74
2022/03/20 04:12:04;;;;;;;27.83;14.33;;;5.10;99.90;;;;;;5018898;28;20199;-72
2022/03/20 04:14:32;;;;;;;28.40;15.10;;;5.00;99.90;;;;;;5021059;28;20198;-73
2022/03/20 04:16:59;;;;;;;25.90;14.23;;;5.00;99.90;;;;;;5012263;28;20235;-74
2022/03/20 04:19:26;;;;;;;29.40;15.43;;;5.20;99.90;;;;;;5021131;28;20702;-74
2022/03/20 04:21:53;;;;;;;28.40;13.97;;;5.10;99.90;;;;;;5017916;28;20550;-73
2022/03/20 04:24:20;;;;;;;30.63;15.87;;;5.20;99.90;;;;;;5019484;28;20195;-74
2022/03/20 04:26:46;;;;;;;31.80;16.07;;;5.20;99.90;;;;;;5019617;28;20200;-74
2022/03/20 04:29:13;;;;;;;27.93;15.27;;;5.20;99.90;;;;;;5016978;28;20719;-74
2022/03/20 04:31:40;;;;;;;29.57;15.30;;;5.10;99.90;;;;;;5029176;28;20203;-75
2022/03/20 04:34:07;;;;;;;29.17;15.63;;;5.10;99.90;;;;;;5030106;28;20290;-74
2022/03/20 04:36:37;;;;;;;27.10;14.90;;;5.00;99.90;;;;;;5022353;28;20207;-76
2022/03/20 04:39:04;;;;;;;28.17;14.57;;;4.90;99.90;;;;;;5021613;28;20671;-75
2022/03/20 04:41:31;;;;;;;29.90;14.93;;;4.80;99.90;;;;;;5029254;28;20199;-74
2022/03/20 04:43:58;;;;;;;26.07;14.33;;;4.80;99.90;;;;;;5020649;28;20639;-75
2022/03/20 04:46:25;;;;;;;30.23;16.80;;;4.70;99.90;;;;;;5020205;28;20191;-71
2022/03/20 04:59:53;;;;;;;29.80;15.23;;;4.90;99.90;;;;;;5018807;28;20215;-74
2022/03/20 05:02:20;;;;;;;30.43;15.77;;;4.90;99.90;;;;;;5027632;28;20213;-73
2022/03/20 05:04:47;;;;;;;32.53;16.07;;;5.00;99.90;;;;;;5015975;28;20194;-73
2022/03/20 05:07:14;;;;;;;33.30;16.47;;;5.10;99.90;;;;;;5015760;28;20241;-74
2022/03/20 05:15:12;;;;;;;31.00;15.63;;;5.10;99.90;;;;;;5021646;28;20576;-74
2022/03/20 05:17:38;;;;;;;29.03;16.60;;;5.10;99.90;;;;;;5019381;28;20215;-74
2022/03/20 05:20:06;;;;;;;33.60;16.37;;;5.20;99.90;;;;;;5015520;28;20231;-75
2022/03/20 05:22:37;;;;;;;28.53;15.33;;;5.30;99.90;;;;;;5022087;28;20199;-72
2022/03/20 05:25:07;;;;;;;34.40;16.13;;;5.40;99.90;;;;;;5022456;28;20196;-75
2022/03/20 05:27:34;;;;;;;29.13;15.63;;;5.40;99.90;;;;;;5026622;28;20713;-72
2022/03/20 05:30:05;;;;;;;30.63;16.20;;;5.40;99.90;;;;;;5028355;28;20695;-74
2022/03/20 05:32:33;;;;;;;31.60;16.17;;;5.50;99.90;;;;;;5019176;28;20196;-75
2022/03/20 05:35:01;;;;;;;31.73;16.63;;;5.50;99.90;;;;;;5015438;28;20297;-75
2022/03/20 05:37:29;;;;;;;34.13;15.53;;;5.50;99.90;;;;;;5027281;28;20204;-73
2022/03/20 05:39:55;;;;;;;33.40;17.33;;;5.60;99.90;;;;;;5022512;28;20739;-73
2022/03/20 05:42:27;;;;;;;28.30;16.13;;;5.60;99.90;;;;;;5030820;28;20202;-73
2022/03/20 05:44:54;;;;;;;32.43;16.27;;;5.70;99.90;;;;;;5026956;28;20192;-74
2022/03/20 05:47:21;;;;;;;30.77;16.10;;;5.70;99.90;;;;;;5023830;28;20193;-75
2022/03/20 05:49:48;;;;;;;34.50;17.27;;;5.70;99.90;;;;;;5016087;28;20201;-74
2022/03/20 05:52:15;;;;;;;31.90;17.90;;;5.70;99.90;;;;;;5027452;28;20201;-74
2022/03/20 05:54:42;;;;;;;34.63;17.03;;;5.80;99.90;;;;;;5032994;28;20207;-74
2022/03/20 05:59:54;;;;;;;32.73;15.60;;;5.80;99.90;;;;;;5020265;28;20584;-74
2022/03/20 06:02:21;;;;;;;31.33;16.37;;;5.90;99.90;;;;;;5024421;28;20211;-73
2022/03/20 06:04:48;;;;;;;31.17;16.07;;;5.80;99.90;;;;;;5021889;28;20198;-74
2022/03/20 06:07:15;;;;;;;31.73;17.23;;;5.80;99.90;;;;;;5027842;28;20200;-75
2022/03/20 06:09:41;;;;;;;32.33;16.10;;;5.80;99.90;;;;;;5019829;28;20196;-75
2022/03/20 06:12:09;;;;;;;33.77;17.33;;;5.80;99.90;;;;;;5020118;28;20358;-74
2022/03/20 06:14:36;;;;;;;35.57;18.47;;;5.80;99.90;;;;;;5018799;28;20205;-73
2022/03/20 06:17:05;;;;;;;32.20;17.03;;;5.90;99.90;;;;;;5018514;28;20200;-75
2022/03/20 06:19:34;;;;;;;32.77;17.80;;;6.00;99.90;;;;;;5026590;28;20242;-74
2022/03/20 06:22:00;;;;;;;35.50;17.70;;;6.00;99.90;;;;;;5020401;28;20254;-74
2022/03/20 06:24:27;;;;;;;30.07;16.93;;;6.00;99.90;;;;;;5022853;28;20208;-74
2022/03/20 06:26:54;;;;;;;32.03;17.73;;;6.10;99.90;;;;;;5027185;28;20187;-74
2022/03/20 06:29:20;;;;;;;32.77;17.13;;;6.10;99.90;;;;;;5027853;28;20222;-74
2022/03/20 06:31:50;;;;;;;35.20;17.90;;;6.00;99.90;;;;;;5024706;28;20252;-73
2022/03/20 06:34:17;;;;;;;36.63;18.10;;;6.10;99.90;;;;;;5014169;28;20209;-74
2022/03/20 06:36:44;;;;;;;33.20;18.00;;;6.10;99.90;;;;;;5017337;28;20199;-73
2022/03/20 06:39:11;;;;;;;33.93;17.67;;;6.30;99.90;;;;;;5025586;28;20225;-74
2022/03/20 06:41:38;;;;;;;34.10;18.47;;;6.40;99.90;;;;;;5021825;28;20687;-74
2022/03/20 06:44:05;;;;;;;32.30;16.90;;;6.50;99.90;;;;;;5021227;28;20206;-74
2022/03/20 06:46:33;;;;;;;34.90;17.70;;;6.60;99.90;;;;;;5017913;28;20190;-74
2022/03/20 06:49:00;;;;;;;39.27;18.10;;;6.70;99.90;;;;;;5017465;28;20258;-74
2022/03/20 06:51:26;;;;;;;35.57;17.90;;;6.80;99.90;;;;;;5027447;28;20579;-74
2022/03/20 06:53:53;;;;;;;33.03;17.37;;;6.80;99.90;;;;;;5017406;28;20721;-74
2022/03/20 06:56:20;;;;;;;35.73;17.67;;;6.90;99.90;;;;;;5024061;28;20196;-73
2022/03/20 06:58:47;;;;;;;34.77;18.23;;;7.00;99.90;;;;;;5023186;28;20250;-74
2022/03/20 07:01:13;;;;;;;33.83;18.43;;;7.10;99.90;;;;;;5021924;28;20230;-74
2022/03/20 07:03:40;;;;;;;34.77;18.27;;;7.30;99.90;;;;;;5017653;28;20229;-74
2022/03/20 07:06:07;;;;;;;32.10;18.07;;;7.40;99.90;;;;;;5014236;28;20251;-74
2022/03/20 07:08:33;;;;;;;37.53;17.97;;;7.50;99.90;;;;;;5023783;28;20721;-74
2022/03/20 07:11:00;;;;;;;35.93;18.43;;;7.60;99.90;;;;;;5022624;28;20273;-74
2022/03/20 07:16:14;;;;;;;39.77;18.83;;;7.40;99.90;;;;;;5024563;28;20200;-74
2022/03/20 07:18:45;;;;;;;32.47;17.40;;;7.40;99.90;;;;;;5021241;28;20562;-74
2022/03/20 07:21:14;;;;;;;33.83;16.87;;;7.40;99.90;;;;;;5024896;28;20219;-74
2022/03/20 07:23:41;;;;;;;34.83;18.63;;;7.40;99.90;;;;;;5033992;28;20464;-74
2022/03/20 07:31:39;;;;;;;31.37;17.80;;;7.30;99.90;;;;;;5023439;28;20620;-74
2022/03/20 07:34:06;;;;;;;36.80;19.27;;;7.20;99.90;;;;;;5026932;28;20226;-75
2022/03/20 07:36:33;;;;;;;35.90;19.00;;;7.20;99.90;;;;;;5018882;28;20207;-74
2022/03/20 07:38:59;;;;;;;34.00;18.17;;;7.30;99.90;;;;;;5020607;28;20230;-74
2022/03/20 07:41:26;;;;;;;35.30;19.40;;;7.30;99.90;;;;;;5020434;28;20199;-74
2022/03/20 07:43:53;;;;;;;33.73;18.43;;;7.30;99.90;;;;;;5020537;28;20200;-73
2022/03/20 07:46:19;;;;;;;39.20;19.50;;;7.20;99.90;;;;;;5024753;28;20203;-74
2022/03/20 07:48:47;;;;;;;37.03;19.07;;;7.30;99.90;;;;;;5020238;28;20223;-74
2022/03/20 07:51:17;;;;;;;34.87;18.20;;;7.40;99.90;;;;;;5022842;28;20207;-74
2022/03/20 07:53:44;;;;;;;38.50;18.60;;;7.60;99.90;;;;;;5019167;28;20203;-74
2022/03/20 07:56:11;;;;;;;34.10;18.90;;;7.90;99.90;;;;;;5023137;28;20621;-73
2022/03/20 07:58:38;;;;;;;38.30;18.90;;;8.10;99.90;;;;;;5030219;28;20223;-74
2022/03/20 08:01:05;;;;;;;37.30;19.10;;;8.30;99.90;;;;;;5024094;28;20228;-73
2022/03/20 08:03:31;;;;;;;33.93;18.43;;;8.30;99.90;;;;;;5017675;28;20202;-74
2022/03/20 08:05:58;;;;;;;37.13;18.70;;;8.40;99.90;;;;;;5018291;28;20208;-74
2022/03/20 08:08:25;;;;;;;34.60;18.90;;;8.50;99.90;;;;;;5009932;28;20250;-74
2022/03/20 08:10:51;;;;;;;34.03;18.67;;;8.70;99.90;;;;;;5018969;28;20213;-75
2022/03/20 08:13:18;;;;;;;34.57;18.57;;;8.80;99.90;;;;;;5018453;28;20207;-74
2022/03/20 08:15:46;;;;;;;32.97;18.47;;;8.90;99.90;;;;;;5023129;28;20196;-73
2022/03/20 08:18:16;;;;;;;37.47;18.13;;;9.30;99.90;;;;;;5023210;28;20358;-73
2022/03/20 08:20:42;;;;;;;33.67;18.30;;;9.60;99.90;;;;;;5018318;28;20212;-74
2022/03/20 08:23:10;;;;;;;34.27;17.57;;;9.80;99.90;;;;;;5029058;28;20199;-73
2022/03/20 08:25:38;;;;;;;35.63;19.07;;;10.10;99.90;;;;;;5019335;28;20729;-75
2022/03/20 08:28:09;;;;;;;35.00;18.83;;;10.20;99.90;;;;;;5022834;28;20763;-75
2022/03/20 08:30:36;;;;;;;35.73;18.83;;;10.30;99.90;;;;;;5022269;28;20380;-74
2022/03/20 08:33:03;;;;;;;35.43;19.63;;;10.30;99.90;;;;;;5019594;28;20665;-74
2022/03/20 08:35:30;;;;;;;35.87;19.73;;;10.20;99.90;;;;;;5017922;28;20219;-74
2022/03/20 08:37:57;;;;;;;33.67;18.70;;;10.00;99.90;;;;;;5021066;28;20331;-74
2022/03/20 08:40:25;;;;;;;33.07;18.00;;;10.00;99.90;;;;;;5014903;28;20219;-74
2022/03/20 08:42:54;;;;;;;32.63;18.07;;;10.10;99.90;;;;;;5024333;28;20199;-74
2022/03/20 08:45:22;;;;;;;35.37;18.57;;;10.10;99.90;;;;;;5025031;28;20202;-75
2022/03/20 08:47:49;;;;;;;34.73;18.43;;;10.10;99.90;;;;;;5036973;28;20228;-74
2022/03/20 08:50:18;;;;;;;32.37;18.10;;;10.10;99.90;;;;;;5023334;28;20199;-73
2022/03/20 08:52:46;;;;;;;34.03;18.67;;;10.20;99.90;;;;;;5025374;28;20547;-74
2022/03/20 08:55:14;;;;;;;37.77;19.47;;;10.30;99.90;;;;;;5020024;28;20200;-74
2022/03/20 08:57:48;;;;;;;33.07;18.57;;;10.40;99.90;;;;;;5026404;28;20272;-72
2022/03/20 09:00:19;;;;;;;32.10;18.50;;;10.50;99.90;;;;;;5014625;28;20226;-75
2022/03/20 09:02:48;;;;;;;32.93;18.53;;;10.50;99.90;;;;;;5028777;28;20253;-74
2022/03/20 09:05:17;;;;;;;35.10;18.87;;;10.70;99.90;;;;;;5027178;28;20200;-74
2022/03/20 09:07:45;;;;;;;33.10;19.00;;;10.70;99.90;;;;;;5020081;28;20211;-71
2022/03/20 09:10:14;;;;;;;35.57;19.07;;;11.00;99.90;;;;;;5028999;28;20254;-74
2022/03/20 09:12:44;;;;;;;32.90;18.77;;;11.10;99.90;;;;;;5023466;28;20661;-74
2022/03/20 09:15:16;;;;;;;31.70;18.23;;;11.20;99.90;;;;;;5024223;28;20215;-74
2022/03/20 09:20:34;;;;;;;38.43;19.37;;;11.70;99.90;;;;;;5025148;28;20716;-74
2022/03/20 09:23:00;;;;;;;32.37;18.70;;;11.90;99.90;;;;;;5019783;28;20202;-73
2022/03/20 09:25:27;;;;;;;35.13;18.97;;;12.20;99.90;;;;;;5024556;28;20201;-73
2022/03/20 09:28:01;;;;;;;33.97;18.77;;;12.30;99.90;;;;;;5018183;28;20211;-73
2022/03/20 09:30:28;;;;;;;33.10;18.57;;;12.50;99.90;;;;;;5022269;28;20198;-75
2022/03/20 09:32:55;;;;;;;33.00;18.30;;;12.40;99.90;;;;;;5017776;28;20693;-74
2022/03/20 09:35:22;;;;;;;36.37;19.07;;;12.40;99.90;;;;;;5022117;28;20219;-74
2022/03/20 09:37:49;;;;;;;32.77;18.73;;;12.10;99.90;;;;;;5018982;28;20223;-74
2022/03/20 09:40:16;;;;;;;36.50;20.23;;;12.10;99.90;;;;;;5022812;28;20226;-73
2022/03/20 09:42:42;;;;;;;34.67;18.43;;;12.30;99.90;;;;;;5023618;28;20202;-76
2022/03/20 09:45:09;;;;;;;30.93;18.03;;;12.50;99.90;;;;;;5016844;28;20195;-75
2022/03/20 09:47:41;;;;;;;30.60;18.37;;;12.70;99.90;;;;;;5018091;28;20766;-75
2022/03/20 09:50:10;;;;;;;31.37;17.60;;;13.00;99.90;;;;;;5024193;28;20209;-77
2022/03/20 09:52:38;;;;;;;32.53;18.03;;;13.30;99.90;;;;;;5030573;28;20195;-75
2022/03/20 09:55:07;;;;;;;30.70;18.03;;;13.50;99.90;;;;;;5014883;28;20206;-74
2022/03/20 09:57:33;;;;;;;34.73;18.47;;;13.50;99.90;;;;;;5026237;28;20219;-76
2022/03/20 10:00:05;;;;;;;32.40;18.70;;;13.60;99.90;;;;;;5022031;28;20286;-80
2022/03/20 10:02:32;;;;;;;32.50;18.73;;;13.70;99.90;;;;;;5025118;28;20196;-81
2022/03/20 10:05:04;;;;;;;31.67;19.37;;;13.80;99.90;;;;;;5016783;28;20240;-79
2022/03/20 10:07:35;;;;;;;31.67;18.60;;;13.90;99.90;;;;;;5034671;28;20196;-81
2022/03/20 10:10:13;;;;;;;37.77;20.33;;;14.10;99.90;;;;;;5027397;28;20214;-89
2022/03/20 10:12:56;;;;;;;35.10;19.30;;;14.20;99.90;;;;;;5032887;28;20202;-87
2022/03/20 10:15:27;;;;;;;30.53;18.40;;;14.70;99.90;;;;;;5033183;28;20191;-81
2022/03/20 10:18:18;;;;;;;33.47;18.97;;;15.10;99.90;;;;;;5033781;28;20219;-76
2022/03/20 10:20:48;;;;;;;36.33;20.27;;;15.50;99.90;;;;;;5021995;28;20215;-76
2022/03/20 10:23:37;;;;;;;33.13;19.53;;;15.70;99.90;;;;;;5022941;28;20199;-76
2022/03/20 10:26:11;;;;;;;32.87;19.57;;;16.00;99.90;;;;;;5044893;28;20691;-75
2022/03/20 10:28:40;;;;;;;36.50;20.43;;;16.20;99.90;;;;;;5025082;28;20215;-75
2022/03/20 10:31:11;;;;;;;38.23;20.93;;;16.60;99.90;;;;;;5025997;28;20198;-75
2022/03/20 10:33:40;;;;;;;41.53;21.70;;;16.60;99.90;;;;;;5023305;28;20660;-76
2022/03/20 10:36:17;;;;;;;39.13;21.83;;;17.00;99.90;;;;;;5024236;28;20200;-76
2022/03/20 10:38:49;;;;;;;34.30;19.63;;;17.10;99.90;;;;;;5021559;28;20214;-76
2022/03/20 10:41:34;;;;;;;33.97;19.50;;;17.00;99.90;;;;;;5021980;28;20223;-75
2022/03/20 10:44:27;;;;;;;31.27;19.20;;;16.90;99.90;;;;;;5024857;28;20234;-78
2022/03/20 10:47:10;;;;;;;33.00;19.70;;;16.50;99.90;;;;;;5021333;28;20200;-75
2022/03/20 10:49:38;;;;;;;33.27;19.10;;;16.30;99.90;;;;;;5016802;28;20273;-75
2022/03/20 10:52:07;;;;;;;35.73;19.00;;;16.40;99.90;;;;;;5028162;28;20226;-75
2022/03/20 10:54:42;;;;;;;36.43;20.17;;;16.40;99.90;;;;;;5027333;28;20195;-76
2022/03/20 10:57:11;;;;;;;34.00;19.77;;;16.30;99.90;;;;;;5018686;28;20196;-76
2022/03/20 10:59:40;;;;;;;34.63;20.03;;;16.40;99.90;;;;;;5018321;28;20657;-75
2022/03/20 11:02:20;;;;;;;31.57;18.80;;;16.40;99.90;;;;;;5017937;28;20220;-73
2022/03/20 11:04:47;;;;;;;33.53;19.67;;;16.30;99.90;;;;;;5019046;28;20220;-78
2022/03/20 11:07:16;;;;;;;29.53;18.83;;;16.50;99.90;;;;;;5017836;28;20195;-74
2022/03/20 11:09:48;;;;;;;32.90;19.23;;;16.60;99.90;;;;;;5025559;28;20276;-77
2022/03/20 11:12:21;;;;;;;33.10;18.73;;;16.50;99.90;;;;;;5017937;28;20199;-75
2022/03/20 11:14:49;;;;;;;33.33;19.17;;;16.30;99.90;;;;;;5021568;28;20196;-76
2022/03/20 11:17:21;;;;;;;31.30;18.43;;;16.30;99.90;;;;;;5012525;28;20196;-79
2022/03/20 11:19:52;;;;;;;33.77;19.60;;;16.30;99.90;;;;;;5024865;28;20203;-77
2022/03/20 11:22:21;;;;;;;31.27;18.73;;;16.20;99.90;;;;;;5026470;28;20353;-74
2022/03/20 11:24:50;;;;;;;31.77;19.07;;;16.20;99.90;;;;;;5024438;28;20189;-75
2022/03/20 11:27:27;;;;;;;33.23;19.40;;;16.30;99.90;;;;;;5023254;28;20203;-75
2022/03/20 11:30:01;;;;;;;34.40;19.83;;;16.00;99.90;;;;;;5018984;28;20594;-74
2022/03/20 11:32:28;;;;;;;34.17;19.03;;;16.00;99.90;;;;;;5022624;28;20216;-73
2022/03/20 11:34:56;;;;;;;33.30;18.77;;;15.80;99.90;;;;;;5015627;28;20231;-75
2022/03/20 11:37:22;;;;;;;31.80;19.40;;;15.80;99.90;;;;;;5021042;28;20200;-75
2022/03/20 11:40:26;;;;;;;31.23;18.73;;;15.90;99.90;;;;;;5026954;28;20257;-75
2022/03/20 11:43:22;;;;;;;31.67;18.87;;;15.80;99.90;;;;;;4989141;28;20280;-75
2022/03/20 11:46:28;;;;;;;31.37;18.30;;;15.80;99.90;;;;;;5021417;28;20254;-75
2022/03/20 11:49:24;;;;;;;32.17;18.43;;;16.00;99.90;;;;;;5015030;28;20710;-74
2022/03/20 11:51:54;;;;;;;32.97;19.13;;;16.00;99.90;;;;;;5012686;28;20309;-76
2022/03/20 11:54:27;;;;;;;30.67;18.63;;;16.20;99.90;;;;;;5021149;28;20191;-76
2022/03/20 11:56:54;;;;;;;31.90;18.40;;;16.30;99.90;;;;;;5018823;28;20671;-76
2022/03/20 11:59:49;;;;;;;32.10;18.20;;;16.20;99.90;;;;;;5023159;28;20238;-75
2022/03/20 12:02:43;;;;;;;34.80;17.33;;;16.20;99.90;;;;;;5021103;28;20319;-78
2022/03/20 12:05:18;;;;;;;28.53;17.60;;;16.30;99.90;;;;;;5024006;28;20199;-76
2022/03/20 12:08:05;;;;;;;28.77;16.67;;;16.40;99.90;;;;;;5017113;28;20220;-76
2022/03/20 12:10:34;;;;;;;27.37;17.80;;;16.60;99.90;;;;;;5022913;28;20241;-76
2022/03/20 12:13:12;;;;;;;28.07;17.63;;;16.50;99.90;;;;;;5028154;28;20257;-77
2022/03/20 12:15:44;;;;;;;30.60;17.27;;;16.40;99.90;;;;;;5030299;28;20585;-75
2022/03/20 12:18:11;;;;;;;29.23;17.03;;;16.40;99.90;;;;;;5029642;28;20215;-73
2022/03/20 12:21:05;;;;;;;27.67;17.10;;;16.10;99.90;;;;;;5029706;28;20230;-74
2022/03/20 12:23:43;;;;;;;29.23;16.83;;;15.90;99.90;;;;;;5030697;28;20191;-76
2022/03/20 12:26:41;;;;;;;35.67;17.90;;;16.00;99.90;;;;;;5029718;28;20268;-77
2022/03/20 12:29:28;;;;;;;29.37;17.83;;;16.10;99.90;;;;;;5019782;28;20211;-74
2022/03/20 12:32:07;;;;;;;31.40;17.87;;;16.40;99.90;;;;;;5020028;28;20199;-76
2022/03/20 12:34:33;;;;;;;28.90;17.47;;;16.90;99.90;;;;;;5015468;28;20200;-74
2022/03/20 12:37:29;;;;;;;32.90;18.07;;;16.90;99.90;;;;;;5020516;28;20196;-73
2022/03/20 12:40:08;;;;;;;31.90;16.67;;;17.00;99.90;;;;;;5023721;28;20196;-75
2022/03/20 12:43:07;;;;;;;28.30;16.70;;;16.90;99.90;;;;;;5009765;28;20250;-73
2022/03/20 12:45:40;;;;;;;26.63;16.77;;;16.70;99.90;;;;;;5019886;28;20664;-73
2022/03/20 12:48:13;;;;;;;31.53;17.73;;;16.70;99.90;;;;;;5020635;28;20215;-74
2022/03/20 12:50:43;;;;;;;27.30;15.70;;;16.60;99.90;;;;;;5024471;28;20184;-74
2022/03/20 12:53:16;;;;;;;25.93;15.23;;;16.50;99.90;;;;;;5023790;28;20192;-72
2022/03/20 12:55:48;;;;;;;27.83;15.53;;;16.50;99.90;;;;;;5025532;28;20217;-73
2022/03/20 12:58:18;;;;;;;30.03;16.33;;;16.50;99.90;;;;;;5022207;28;20266;-72
2022/03/20 13:00:45;;;;;;;24.63;14.87;;;16.60;99.90;;;;;;5025662;28;20227;-73
2022/03/20 13:03:14;;;;;;;24.63;14.60;;;16.60;99.90;;;;;;5019181;28;20195;-74
2022/03/20 13:05:53;;;;;;;29.90;16.13;;;16.70;99.90;;;;;;5025656;28;20278;-74
2022/03/20 13:08:25;;;;;;;29.97;16.23;;;16.60;99.90;;;;;;5010780;28;20227;-73
2022/03/20 13:10:57;;;;;;;28.23;15.70;;;16.50;99.90;;;;;;5013784;28;20226;-72
2022/03/20 13:13:29;;;;;;;22.33;14.53;;;16.50;99.90;;;;;;5023151;28;20196;-74
2022/03/20 13:15:56;;;;;;;25.13;15.07;;;16.70;99.90;;;;;;5025731;28;20639;-76
2022/03/20 13:18:25;;;;;;;25.03;14.70;;;16.70;99.90;;;;;;5029385;28;20215;-76
2022/03/20 13:20:52;;;;;;;23.90;14.20;;;16.70;99.90;;;;;;5029440;28;20214;-76
2022/03/20 13:23:22;;;;;;;28.20;15.00;;;16.70;99.90;;;;;;5020544;28;20695;-72